Time;durP1;ratioP1;P1;durP2;ratioP2;P2;SDS_P1;SDS_P2;PMS_P1;PMS_P2;Temp;Humidity;BMP_temperature;BMP_pressure;BME280_temperature;BME280_humidity;BME280_pressure;Samples;Min_cycle;Max_cycle;Signal;HPM_P1;HPM_P2
2023/11/02 00:01:30;;;;;;;3.87;2.40;;;12.50;99.90;;;;;;4978968;28;20437;-70
2023/11/02 00:03:56;;;;;;;4.87;2.60;;;12.40;99.90;;;;;;4983694;28;20193;-71
2023/11/02 00:06:21;;;;;;;5.87;3.63;;;12.40;99.90;;;;;;4978144;28;20864;-70
2023/11/02 00:09:25;;;;;;;5.17;2.90;;;12.40;99.90;;;;;;4981258;28;20182;-71
2023/11/02 00:11:53;;;;;;;7.53;4.07;;;12.40;99.90;;;;;;4949785;28;20290;-69
2023/11/02 00:14:19;;;;;;;4.43;2.90;;;12.40;99.90;;;;;;4979611;28;20473;-69
2023/11/02 00:16:48;;;;;;;11.23;2.83;;;12.40;99.90;;;;;;4980200;28;20927;-70
2023/11/02 00:19:30;;;;;;;11.30;2.80;;;12.40;99.90;;;;;;4977488;28;20418;-70
2023/11/02 00:22:14;;;;;;;6.40;3.10;;;12.30;99.90;;;;;;4982633;28;20549;-71
2023/11/02 00:24:42;;;;;;;6.53;2.57;;;12.30;99.90;;;;;;4976744;28;20425;-70
2023/11/02 00:27:08;;;;;;;5.30;2.70;;;12.30;99.90;;;;;;4983423;28;21002;-70
2023/11/02 00:29:33;;;;;;;6.37;2.50;;;12.30;99.90;;;;;;4976067;28;20429;-70
2023/11/02 00:31:59;;;;;;;5.07;2.50;;;12.30;99.90;;;;;;4982182;28;20449;-71
2023/11/02 00:34:28;;;;;;;4.70;2.60;;;12.30;99.90;;;;;;4981172;28;20213;-70
2023/11/02 00:36:55;;;;;;;5.27;2.80;;;12.30;99.90;;;;;;4975411;28;20461;-70
2023/11/02 00:39:21;;;;;;;4.60;2.50;;;12.30;99.90;;;;;;4981289;28;20434;-70
2023/11/02 00:41:47;;;;;;;3.40;2.10;;;12.30;99.90;;;;;;4982605;28;20440;-70
2023/11/02 00:44:13;;;;;;;6.50;2.67;;;12.30;99.90;;;;;;4978372;28;20666;-71
2023/11/02 00:46:39;;;;;;;4.10;2.33;;;12.30;99.90;;;;;;4978296;28;20456;-71
2023/11/02 00:49:11;;;;;;;4.23;2.67;;;12.30;99.90;;;;;;4982433;28;20428;-71
2023/11/02 00:51:36;;;;;;;12.43;2.47;;;12.30;99.90;;;;;;4976947;28;20420;-71
2023/11/02 00:54:06;;;;;;;3.73;2.60;;;12.30;99.90;;;;;;4981287;28;20477;-71
2023/11/02 00:56:41;;;;;;;4.47;2.10;;;12.30;99.90;;;;;;4980594;28;20322;-71
2023/11/02 00:59:06;;;;;;;4.03;2.00;;;12.30;99.90;;;;;;4979627;28;20424;-71
2023/11/02 01:01:32;;;;;;;4.33;2.00;;;12.30;99.90;;;;;;4973077;28;20443;-71
2023/11/02 01:04:03;;;;;;;4.17;2.43;;;12.30;99.90;;;;;;4982642;28;20242;-70
2023/11/02 01:06:30;;;;;;;5.03;2.20;;;12.30;99.90;;;;;;4976027;28;20186;-71
2023/11/02 01:09:01;;;;;;;3.77;2.20;;;12.30;99.90;;;;;;4977097;28;20795;-70
2023/11/02 01:11:30;;;;;;;4.53;2.00;;;12.30;99.90;;;;;;4981548;28;20416;-70
2023/11/02 01:13:57;;;;;;;2.90;2.30;;;12.30;99.90;;;;;;4978638;28;20511;-70
2023/11/02 01:16:22;;;;;;;3.53;2.27;;;12.40;99.90;;;;;;4983238;28;20425;-71
2023/11/02 01:18:48;;;;;;;5.93;2.20;;;12.40;99.90;;;;;;4985897;28;20427;-70
2023/11/02 01:21:15;;;;;;;3.33;1.93;;;12.40;99.90;;;;;;4983392;28;20325;-70
2023/11/02 01:23:41;;;;;;;5.43;2.37;;;12.40;99.90;;;;;;4983959;28;20288;-70
2023/11/02 01:26:36;;;;;;;3.03;2.10;;;12.40;99.90;;;;;;4984155;28;20527;-71
2023/11/02 01:29:02;;;;;;;5.77;2.00;;;12.40;99.90;;;;;;4980342;28;20575;-71
2023/11/02 01:31:34;;;;;;;5.33;2.13;;;12.40;99.90;;;;;;4979469;28;20496;-71
2023/11/02 01:34:01;;;;;;;4.67;1.90;;;12.40;99.90;;;;;;4980278;28;20564;-70
2023/11/02 01:36:38;;;;;;;3.87;1.53;;;12.40;99.90;;;;;;4981604;28;20425;-71
2023/11/02 01:39:10;;;;;;;3.70;1.90;;;12.40;99.90;;;;;;4983684;28;20416;-71
2023/11/02 01:41:47;;;;;;;3.80;2.20;;;12.40;99.90;;;;;;4979981;28;20445;-70
2023/11/02 01:44:17;;;;;;;4.40;1.53;;;12.40;99.90;;;;;;4981298;28;20460;-70
2023/11/02 01:46:59;;;;;;;2.80;1.77;;;12.40;99.90;;;;;;4983736;28;20416;-71
2023/11/02 01:49:27;;;;;;;6.43;1.90;;;12.50;99.90;;;;;;4976887;28;20508;-71
2023/11/02 01:52:00;;;;;;;4.10;1.60;;;12.50;99.90;;;;;;4983157;28;20421;-71
2023/11/02 01:55:04;;;;;;;4.93;2.27;;;12.50;99.90;;;;;;4983162;28;20473;-71
2023/11/02 01:58:04;;;;;;;5.43;1.50;;;12.50;99.90;;;;;;4998603;28;21188;-70
2023/11/02 02:00:39;;;;;;;2.60;1.50;;;12.50;99.90;;;;;;4981635;28;20417;-70
2023/11/02 02:03:28;;;;;;;2.67;1.63;;;12.50;99.90;;;;;;4977566;28;20460;-70
2023/11/02 02:06:18;;;;;;;3.40;2.00;;;12.50;99.90;;;;;;4979442;28;20495;-70
2023/11/02 02:08:52;;;;;;;2.93;1.70;;;12.50;99.90;;;;;;4980441;28;20437;-70
2023/11/02 02:11:37;;;;;;;2.97;1.60;;;12.50;99.90;;;;;;4981935;28;20429;-70
2023/11/02 02:14:22;;;;;;;5.53;1.70;;;12.50;99.90;;;;;;4980032;28;20488;-70
2023/11/02 02:17:06;;;;;;;4.00;1.83;;;12.50;99.90;;;;;;4980599;28;20769;-70
2023/11/02 02:19:50;;;;;;;10.97;1.90;;;12.50;99.90;;;;;;4981341;28;20448;-70
2023/11/02 02:22:24;;;;;;;2.63;1.47;;;12.50;99.90;;;;;;4982833;28;20842;-70
2023/11/02 02:25:34;;;;;;;2.70;1.60;;;12.50;99.90;;;;;;4980999;28;20828;-70
2023/11/02 02:28:25;;;;;;;2.90;1.83;;;12.50;99.90;;;;;;4984976;28;20420;-70
2023/11/02 02:31:15;;;;;;;3.90;1.80;;;12.50;99.90;;;;;;4981657;28;20481;-71
2023/11/02 02:34:17;;;;;;;1.93;1.30;;;12.60;99.90;;;;;;4982076;28;20471;-71
2023/11/02 02:37:06;;;;;;;7.60;1.50;;;12.60;99.90;;;;;;4977746;28;20424;-71
2023/11/02 02:39:43;;;;;;;11.80;4.13;;;12.60;99.90;;;;;;4975902;28;20435;-70
2023/11/02 02:42:13;;;;;;;3.23;1.40;;;12.70;99.90;;;;;;4983212;28;20451;-70
2023/11/02 02:44:41;;;;;;;2.70;2.00;;;12.70;99.90;;;;;;4983512;28;20528;-70
2023/11/02 02:47:08;;;;;;;3.33;1.70;;;12.70;99.90;;;;;;4979913;28;20440;-70
2023/11/02 02:49:48;;;;;;;2.20;1.43;;;12.80;99.90;;;;;;4986811;28;20915;-71
2023/11/02 02:52:19;;;;;;;4.23;1.70;;;12.80;99.90;;;;;;4982323;28;20425;-70
2023/11/02 02:54:48;;;;;;;3.17;1.87;;;12.90;99.90;;;;;;4978777;28;20449;-70
2023/11/02 02:57:17;;;;;;;4.70;1.70;;;12.90;99.90;;;;;;4977141;28;20827;-71
2023/11/02 02:59:49;;;;;;;3.50;1.53;;;12.90;99.90;;;;;;4978713;28;20939;-71
2023/11/02 03:02:16;;;;;;;3.00;1.40;;;13.00;99.90;;;;;;4981352;28;20775;-71
2023/11/02 03:04:45;;;;;;;2.20;1.63;;;13.00;99.90;;;;;;4977497;28;20841;-71
2023/11/02 03:07:15;;;;;;;7.57;1.90;;;13.10;99.90;;;;;;4981047;28;20432;-70
2023/11/02 03:09:43;;;;;;;3.00;1.40;;;13.10;99.90;;;;;;4994730;28;20461;-71
2023/11/02 03:12:10;;;;;;;4.17;1.63;;;13.10;99.90;;;;;;4978041;28;20448;-71
2023/11/02 03:14:40;;;;;;;2.30;1.40;;;13.10;99.90;;;;;;4983141;28;20480;-71
2023/11/02 03:17:20;;;;;;;2.33;1.43;;;13.20;99.90;;;;;;4980610;28;20435;-70
2023/11/02 03:19:50;;;;;;;2.87;1.40;;;13.20;99.90;;;;;;4972656;28;20433;-71
2023/11/02 03:22:22;;;;;;;2.40;1.30;;;13.20;99.90;;;;;;4982727;28;20935;-71
2023/11/02 03:25:06;;;;;;;1.80;1.20;;;13.20;99.90;;;;;;4976087;28;20449;-71
2023/11/02 03:27:40;;;;;;;4.43;1.67;;;13.20;99.90;;;;;;4981105;28;20409;-71
2023/11/02 03:30:11;;;;;;;4.80;1.83;;;13.30;99.90;;;;;;4982068;28;20833;-71
2023/11/02 03:32:44;;;;;;;4.30;1.60;;;13.30;99.90;;;;;;4982461;28;20582;-71
2023/11/02 03:35:33;;;;;;;3.60;1.80;;;13.20;99.90;;;;;;4978379;28;20441;-71
2023/11/02 03:38:30;;;;;;;2.23;1.20;;;13.20;99.90;;;;;;4982827;28;20432;-71
2023/11/02 03:41:19;;;;;;;2.37;1.40;;;13.20;99.90;;;;;;4977355;28;20429;-71
2023/11/02 03:44:16;;;;;;;4.43;1.40;;;13.20;99.90;;;;;;4980357;28;20534;-71
2023/11/02 03:47:03;;;;;;;2.33;1.20;;;13.20;99.90;;;;;;4967873;28;20429;-71
2023/11/02 03:49:53;;;;;;;3.20;1.80;;;13.20;99.90;;;;;;4981749;28;20870;-71
2023/11/02 03:52:53;;;;;;;3.57;1.70;;;13.20;99.90;;;;;;4978228;28;20584;-71
2023/11/02 03:55:52;;;;;;;2.73;1.40;;;13.10;99.90;;;;;;4897302;28;20452;-70
2023/11/02 03:58:53;;;;;;;2.10;1.30;;;13.00;99.90;;;;;;4983143;28;20441;-70
2023/11/02 04:01:26;;;;;;;2.37;1.37;;;13.00;99.90;;;;;;4979201;28;20453;-71
2023/11/02 04:04:04;;;;;;;3.53;1.30;;;13.00;99.90;;;;;;4981272;28;20536;-71
2023/11/02 04:06:58;;;;;;;2.83;1.50;;;13.00;99.90;;;;;;4981947;28;20437;-70
2023/11/02 04:09:27;;;;;;;2.63;1.30;;;13.00;99.90;;;;;;4977252;28;20445;-70
2023/11/02 04:11:58;;;;;;;2.30;1.40;;;13.00;99.90;;;;;;4981592;28;20427;-70
2023/11/02 04:14:25;;;;;;;4.80;1.53;;;13.00;99.90;;;;;;4982949;28;20479;-70
2023/11/02 04:16:51;;;;;;;3.00;1.40;;;13.10;99.90;;;;;;4976004;28;20533;-70
2023/11/02 04:19:17;;;;;;;3.27;1.60;;;13.10;99.90;;;;;;4982403;28;20812;-70
2023/11/02 04:21:43;;;;;;;1.93;1.40;;;13.20;99.90;;;;;;4980707;28;20959;-70
2023/11/02 04:24:11;;;;;;;4.73;1.60;;;13.20;99.90;;;;;;4980436;28;20287;-70
2023/11/02 04:26:37;;;;;;;2.93;1.47;;;13.10;99.90;;;;;;4981060;28;20464;-70
2023/11/02 04:29:03;;;;;;;6.13;1.30;;;13.20;99.90;;;;;;4981044;28;20441;-70
2023/11/02 04:31:30;;;;;;;2.10;1.43;;;13.20;99.90;;;;;;4978439;28;20946;-69
2023/11/02 04:33:58;;;;;;;2.13;1.40;;;13.20;99.90;;;;;;4981722;28;20213;-70
2023/11/02 04:36:23;;;;;;;2.77;1.23;;;13.20;99.90;;;;;;4981562;28;20425;-70
2023/11/02 04:38:52;;;;;;;2.50;1.70;;;13.20;99.90;;;;;;4978208;28;21385;-71
2023/11/02 04:41:19;;;;;;;2.17;1.40;;;13.20;99.90;;;;;;4980468;28;20179;-70
2023/11/02 04:43:45;;;;;;;6.30;1.97;;;13.30;99.90;;;;;;4973739;28;20480;-70
2023/11/02 04:46:10;;;;;;;2.47;1.60;;;13.30;99.90;;;;;;4974822;28;20429;-70
2023/11/02 04:48:36;;;;;;;1.90;1.23;;;13.30;99.90;;;;;;4979278;28;20201;-71
2023/11/02 04:51:01;;;;;;;2.90;1.70;;;13.30;99.90;;;;;;4984384;28;20190;-70
2023/11/02 04:53:27;;;;;;;2.90;1.63;;;13.30;99.90;;;;;;4983503;28;20218;-69
2023/11/02 04:55:53;;;;;;;3.60;1.77;;;13.40;99.90;;;;;;4985703;28;20201;-70
2023/11/02 04:58:18;;;;;;;4.73;1.67;;;13.40;99.90;;;;;;4984873;28;20188;-70
2023/11/02 05:00:45;;;;;;;2.47;1.50;;;13.40;99.90;;;;;;4981497;28;20269;-70
2023/11/02 05:03:11;;;;;;;3.90;1.60;;;13.40;99.90;;;;;;4980070;28;20540;-70
2023/11/02 05:05:36;;;;;;;2.27;1.37;;;13.40;99.90;;;;;;4986255;28;20186;-70
2023/11/02 05:08:02;;;;;;;2.03;1.33;;;13.40;99.90;;;;;;4983983;28;20194;-70
2023/11/02 05:10:28;;;;;;;2.60;1.37;;;13.40;99.90;;;;;;4982743;28;20280;-70
2023/11/02 05:12:54;;;;;;;4.20;1.70;;;13.50;99.90;;;;;;4981695;28;21182;-70
2023/11/02 05:15:19;;;;;;;2.90;1.70;;;13.50;99.90;;;;;;4985129;28;20181;-70
2023/11/02 05:17:45;;;;;;;1.90;1.43;;;13.50;99.90;;;;;;4985755;28;20261;-69
2023/11/02 05:20:11;;;;;;;2.97;1.80;;;13.50;99.90;;;;;;4982684;28;20221;-70
2023/11/02 05:22:37;;;;;;;2.47;1.60;;;13.50;99.90;;;;;;4983183;28;20628;-69
2023/11/02 05:25:03;;;;;;;6.17;1.87;;;13.50;99.90;;;;;;4981675;28;20472;-69
2023/11/02 05:27:29;;;;;;;3.17;2.43;;;13.50;99.90;;;;;;4984450;28;20429;-69
2023/11/02 05:29:55;;;;;;;3.00;2.10;;;13.50;99.90;;;;;;4983866;28;20432;-70
2023/11/02 05:32:20;;;;;;;3.87;2.60;;;13.50;99.90;;;;;;4980549;28;20446;-69
2023/11/02 05:34:46;;;;;;;2.63;2.20;;;13.50;99.90;;;;;;4982883;28;20304;-70
2023/11/02 05:37:12;;;;;;;3.50;2.43;;;13.50;99.90;;;;;;4987086;28;20190;-70
2023/11/02 05:39:38;;;;;;;2.70;2.10;;;13.50;99.90;;;;;;4978566;28;20182;-70
2023/11/02 05:42:03;;;;;;;4.93;2.50;;;13.50;99.90;;;;;;4979936;28;20433;-70
2023/11/02 05:44:29;;;;;;;6.20;2.60;;;13.40;99.90;;;;;;4981236;28;20546;-71
2023/11/02 05:46:55;;;;;;;2.50;2.20;;;13.40;99.90;;;;;;4983757;28;20186;-70
2023/11/02 05:49:21;;;;;;;4.30;2.07;;;13.40;99.90;;;;;;4985569;28;20479;-70
2023/11/02 05:51:47;;;;;;;3.33;2.20;;;13.40;99.90;;;;;;4983397;28;20197;-70
2023/11/02 05:54:12;;;;;;;2.63;1.90;;;13.40;99.90;;;;;;4981538;28;20210;-69
2023/11/02 05:56:38;;;;;;;2.83;1.90;;;13.30;99.90;;;;;;4985993;28;20433;-69
2023/11/02 05:59:05;;;;;;;4.93;2.00;;;13.30;99.90;;;;;;4982490;28;20417;-69
2023/11/02 06:01:30;;;;;;;3.27;2.53;;;13.30;99.90;;;;;;4986443;28;20174;-69
2023/11/02 06:03:57;;;;;;;3.40;1.80;;;13.30;99.90;;;;;;4982119;28;20980;-69
2023/11/02 06:06:23;;;;;;;4.57;2.00;;;13.20;99.90;;;;;;4983650;28;20182;-69
2023/11/02 06:08:49;;;;;;;2.50;1.70;;;13.20;99.90;;;;;;4985010;28;20869;-69
2023/11/02 06:11:14;;;;;;;8.10;2.17;;;13.10;99.90;;;;;;4982263;28;20214;-69
2023/11/02 06:13:40;;;;;;;3.03;1.90;;;13.20;99.90;;;;;;4984484;28;20301;-69
2023/11/02 06:16:07;;;;;;;3.83;1.83;;;13.20;99.90;;;;;;4981767;28;20248;-69
2023/11/02 06:18:32;;;;;;;2.40;1.50;;;13.20;99.90;;;;;;4986055;28;20268;-70
2023/11/02 06:20:58;;;;;;;2.57;1.57;;;13.20;99.90;;;;;;4982833;28;20417;-70
2023/11/02 06:23:24;;;;;;;4.27;1.70;;;13.10;99.90;;;;;;4983321;28;20288;-70
2023/11/02 06:25:49;;;;;;;4.80;2.20;;;13.10;99.90;;;;;;4982161;28;20186;-70
2023/11/02 06:28:16;;;;;;;2.77;1.70;;;13.10;99.90;;;;;;4980464;28;20224;-71
2023/11/02 06:30:42;;;;;;;3.80;1.90;;;13.10;99.90;;;;;;4983736;28;20170;-70
2023/11/02 06:33:09;;;;;;;6.03;2.30;;;13.00;99.90;;;;;;4979007;28;20950;-70
2023/11/02 06:35:35;;;;;;;5.17;2.10;;;13.00;99.90;;;;;;4983403;28;20706;-70
2023/11/02 06:38:03;;;;;;;2.90;1.73;;;13.00;99.90;;;;;;4980971;28;20529;-70
2023/11/02 06:40:28;;;;;;;3.10;2.20;;;13.00;99.90;;;;;;4980426;28;20425;-70
2023/11/02 06:42:58;;;;;;;3.20;1.87;;;12.90;99.90;;;;;;4982849;28;20784;-69
2023/11/02 06:45:25;;;;;;;4.43;2.17;;;12.90;99.90;;;;;;4983426;28;20186;-70
2023/11/02 06:47:51;;;;;;;2.97;1.70;;;12.90;99.90;;;;;;4984487;28;20855;-69
2023/11/02 06:50:17;;;;;;;5.13;1.80;;;12.90;99.90;;;;;;4981188;28;20796;-70
2023/11/02 06:52:43;;;;;;;3.93;1.97;;;12.90;99.90;;;;;;4967346;28;20461;-70
2023/11/02 06:55:09;;;;;;;2.77;1.67;;;12.90;99.90;;;;;;4982629;28;20280;-71
2023/11/02 06:57:34;;;;;;;4.00;2.30;;;12.90;99.90;;;;;;4983429;28;20178;-71
2023/11/02 07:00:00;;;;;;;5.43;3.50;;;12.90;99.90;;;;;;4979957;28;20422;-71
2023/11/02 07:02:25;;;;;;;2.87;1.73;;;12.90;99.90;;;;;;4978920;28;20281;-70
2023/11/02 07:04:57;;;;;;;2.73;1.93;;;12.90;99.90;;;;;;4980407;28;20186;-70
2023/11/02 07:07:23;;;;;;;3.43;1.90;;;13.00;99.90;;;;;;4980532;28;20565;-71
2023/11/02 07:09:50;;;;;;;3.60;2.13;;;13.00;99.90;;;;;;4977470;28;20518;-70
2023/11/02 07:12:16;;;;;;;2.83;1.60;;;13.00;99.90;;;;;;4980010;28;20413;-70
2023/11/02 07:14:42;;;;;;;4.57;1.90;;;13.00;99.90;;;;;;4977740;28;20465;-71
2023/11/02 07:17:08;;;;;;;2.60;1.73;;;13.00;99.90;;;;;;4973773;28;20652;-71
2023/11/02 07:19:34;;;;;;;7.03;2.60;;;13.10;99.90;;;;;;4973690;28;20480;-71
2023/11/02 07:21:59;;;;;;;3.70;2.10;;;13.10;99.90;;;;;;4984715;28;20210;-71
2023/11/02 07:24:26;;;;;;;3.27;1.80;;;13.10;99.90;;;;;;4975047;28;20662;-71
2023/11/02 07:26:52;;;;;;;3.10;1.70;;;13.10;99.90;;;;;;4980995;28;20191;-71
2023/11/02 07:29:18;;;;;;;3.17;2.03;;;13.10;99.90;;;;;;4976023;28;20444;-71
2023/11/02 07:31:45;;;;;;;3.20;2.20;;;13.10;99.90;;;;;;4981342;28;20464;-71
2023/11/02 07:34:11;;;;;;;3.63;2.10;;;13.10;99.90;;;;;;4981576;28;20214;-70
2023/11/02 07:36:37;;;;;;;3.50;2.23;;;13.10;99.90;;;;;;4983160;28;20479;-70
2023/11/02 07:39:04;;;;;;;5.40;2.43;;;13.10;99.90;;;;;;4984948;28;20453;-71
2023/11/02 07:41:30;;;;;;;3.23;2.03;;;13.10;99.90;;;;;;4980104;28;20178;-71
2023/11/02 07:43:55;;;;;;;4.57;2.40;;;13.20;99.90;;;;;;4984873;28;20501;-70
2023/11/02 07:46:21;;;;;;;3.40;2.53;;;13.20;99.90;;;;;;4980788;28;20425;-70
2023/11/02 07:48:47;;;;;;;3.97;2.37;;;13.20;99.90;;;;;;4983809;28;20193;-71
2023/11/02 07:51:14;;;;;;;7.10;2.70;;;13.20;99.90;;;;;;4977518;28;20189;-71
2023/11/02 07:53:40;;;;;;;12.47;10.80;;;13.30;99.90;;;;;;4985910;28;20347;-71
2023/11/02 07:56:06;;;;;;;4.77;3.97;;;13.30;99.90;;;;;;4982379;28;20903;-71
2023/11/02 07:58:31;;;;;;;4.50;2.70;;;13.40;99.90;;;;;;4973146;28;20236;-71
2023/11/02 08:00:57;;;;;;;3.93;1.77;;;13.40;99.90;;;;;;4978640;28;20185;-70
2023/11/02 08:03:27;;;;;;;3.80;1.93;;;13.30;99.90;;;;;;4979127;28;20550;-71
2023/11/02 08:06:11;;;;;;;7.07;2.10;;;13.30;99.90;;;;;;4987518;28;20186;-71
2023/11/02 08:09:10;;;;;;;;;;;;;;;;;;;;;
2023/11/02 08:11:41;;;;;;;1.90;1.40;;;13.40;99.90;;;;;;4975516;28;20437;-71
2023/11/02 08:14:40;;;;;;;6.23;1.83;;;13.40;99.90;;;;;;5017800;23;21069;-70
2023/11/02 08:17:05;;;;;;;2.77;1.83;;;13.40;99.90;;;;;;4978452;28;20496;-69
2023/11/02 08:19:31;;;;;;;3.30;1.77;;;13.30;99.90;;;;;;4983971;28;20979;-69
2023/11/02 08:21:57;;;;;;;2.77;1.50;;;13.30;99.90;;;;;;4984908;28;20492;-69
2023/11/02 08:24:22;;;;;;;3.63;1.73;;;13.20;99.90;;;;;;4962792;28;20660;-69
2023/11/02 08:26:48;;;;;;;3.30;1.80;;;13.30;99.90;;;;;;4960337;28;20190;-70
2023/11/02 08:29:13;;;;;;;2.73;1.70;;;13.20;99.90;;;;;;4964298;28;20581;-70
2023/11/02 08:31:39;;;;;;;3.23;1.70;;;13.20;99.90;;;;;;4963176;28;20189;-70
2023/11/02 08:34:05;;;;;;;2.90;1.67;;;13.20;99.90;;;;;;4964013;28;20233;-69
2023/11/02 08:36:40;;;;;;;3.70;2.20;;;13.30;99.90;;;;;;4965955;28;20358;-70
2023/11/02 08:39:06;;;;;;;7.03;2.30;;;13.30;99.90;;;;;;4966240;28;20273;-70
2023/11/02 08:41:31;;;;;;;4.10;2.10;;;13.40;99.90;;;;;;4968792;28;20940;-70
2023/11/02 08:43:59;;;;;;;4.93;1.97;;;13.40;99.90;;;;;;4963597;28;20206;-70
2023/11/02 08:46:25;;;;;;;3.30;1.70;;;13.50;99.90;;;;;;4965126;28;20194;-70
2023/11/02 08:48:53;;;;;;;3.50;1.77;;;13.50;99.90;;;;;;4965705;28;20430;-70
2023/11/02 08:51:20;;;;;;;5.90;2.50;;;13.60;99.90;;;;;;4963704;28;21079;-71
2023/11/02 08:53:46;;;;;;;3.73;1.97;;;13.60;99.90;;;;;;4964148;28;21015;-70
2023/11/02 08:56:12;;;;;;;3.73;1.80;;;13.60;99.90;;;;;;4965252;28;20438;-69
2023/11/02 08:58:51;;;;;;;2.20;1.60;;;13.70;99.90;;;;;;4964553;28;20438;-70
2023/11/02 09:01:25;;;;;;;2.80;1.80;;;13.70;99.90;;;;;;4965364;28;20417;-71
2023/11/02 09:03:52;;;;;;;4.27;1.70;;;13.70;99.90;;;;;;4967093;28;20442;-70
2023/11/02 09:06:19;;;;;;;2.13;1.50;;;13.80;99.90;;;;;;4967053;28;20575;-70
2023/11/02 09:08:45;;;;;;;2.33;1.50;;;13.80;99.90;;;;;;4964648;28;20438;-71
2023/11/02 09:11:11;;;;;;;2.70;1.40;;;13.80;99.90;;;;;;4962149;28;20461;-71
2023/11/02 09:13:37;;;;;;;3.10;1.50;;;13.80;99.90;;;;;;4967482;28;20240;-72
2023/11/02 09:16:04;;;;;;;2.10;1.30;;;13.90;99.90;;;;;;4957413;28;20193;-71
2023/11/02 09:18:30;;;;;;;1.80;1.20;;;13.90;99.90;;;;;;4960844;28;20465;-70
2023/11/02 09:20:56;;;;;;;1.70;1.07;;;13.90;99.90;;;;;;4961452;28;20442;-69
2023/11/02 09:23:22;;;;;;;2.57;1.33;;;14.00;99.90;;;;;;4961895;28;20536;-70
2023/11/02 09:25:48;;;;;;;2.00;1.20;;;14.00;99.90;;;;;;4961165;28;20447;-70
2023/11/02 09:28:15;;;;;;;6.30;1.53;;;14.10;99.90;;;;;;4962858;28;20199;-71
2023/11/02 09:30:45;;;;;;;4.57;1.33;;;14.20;99.90;;;;;;4963316;28;20799;-70
2023/11/02 09:33:12;;;;;;;5.57;1.27;;;14.10;99.90;;;;;;4959682;28;20478;-70
2023/11/02 09:35:38;;;;;;;2.70;1.27;;;14.20;99.90;;;;;;4961126;28;20509;-70
2023/11/02 09:38:04;;;;;;;2.53;1.30;;;14.20;99.90;;;;;;4961735;28;20734;-70
2023/11/02 09:40:32;;;;;;;4.00;1.20;;;14.20;99.90;;;;;;4962144;28;21377;-70
2023/11/02 09:43:02;;;;;;;3.47;1.60;;;14.20;99.90;;;;;;4963861;28;21044;-70
2023/11/02 09:45:29;;;;;;;2.97;1.60;;;14.30;99.90;;;;;;4959736;28;20421;-70
2023/11/02 09:47:56;;;;;;;8.40;3.57;;;14.30;99.90;;;;;;4961323;28;20530;-70
2023/11/02 09:50:22;;;;;;;3.83;1.90;;;14.20;99.90;;;;;;4961356;28;20449;-70
2023/11/02 09:52:48;;;;;;;5.30;1.20;;;14.30;99.90;;;;;;4962242;28;20469;-70
2023/11/02 09:55:15;;;;;;;3.07;1.40;;;14.30;99.90;;;;;;4961934;28;20969;-71
2023/11/02 09:57:41;;;;;;;3.20;1.47;;;14.40;99.90;;;;;;4960384;28;20202;-68
2023/11/02 10:00:08;;;;;;;6.47;2.40;;;14.30;99.90;;;;;;4959260;28;20452;-67
2023/11/02 10:02:34;;;;;;;9.67;2.43;;;14.40;99.90;;;;;;4962058;28;20470;-69
2023/11/02 10:05:01;;;;;;;2.40;1.17;;;14.40;99.90;;;;;;4958880;28;20434;-70
2023/11/02 10:07:27;;;;;;;3.03;1.43;;;14.50;99.90;;;;;;4960126;28;21148;-70
2023/11/02 10:09:53;;;;;;;3.87;1.73;;;14.50;99.90;;;;;;4958557;28;20434;-70
2023/11/02 10:12:19;;;;;;;2.33;1.07;;;14.50;99.90;;;;;;4955240;28;20453;-70
2023/11/02 10:14:44;;;;;;;2.43;1.13;;;14.50;99.90;;;;;;4959186;28;20214;-71
2023/11/02 10:17:11;;;;;;;3.63;2.23;;;14.50;99.90;;;;;;4959577;28;20273;-71
2023/11/02 10:19:37;;;;;;;3.90;1.70;;;14.50;99.90;;;;;;4958283;28;20210;-71
2023/11/02 10:22:04;;;;;;;2.07;1.10;;;14.60;99.90;;;;;;4963440;28;20422;-71
2023/11/02 10:24:35;;;;;;;2.93;1.20;;;14.60;99.90;;;;;;4964697;28;20492;-72
2023/11/02 10:27:03;;;;;;;2.17;1.40;;;14.60;99.90;;;;;;4970392;28;20449;-71
2023/11/02 10:29:35;;;;;;;3.40;1.37;;;14.70;99.90;;;;;;4972174;28;20805;-71
2023/11/02 10:32:01;;;;;;;1.80;1.07;;;14.70;99.90;;;;;;4968388;28;20442;-71
2023/11/02 10:34:27;;;;;;;1.97;1.10;;;14.80;99.90;;;;;;4969022;28;20536;-70
2023/11/02 10:36:55;;;;;;;2.10;1.30;;;14.80;99.90;;;;;;4960771;28;20880;-70
2023/11/02 10:39:21;;;;;;;2.63;1.23;;;14.80;99.90;;;;;;4959465;28;20444;-71
2023/11/02 10:42:01;;;;;;;3.63;1.30;;;14.90;99.90;;;;;;4962716;28;20442;-72
2023/11/02 10:44:29;;;;;;;2.40;1.67;;;14.80;99.90;;;;;;4964407;28;20438;-71
2023/11/02 10:47:00;;;;;;;4.70;1.30;;;14.80;99.90;;;;;;4966541;28;20983;-71
2023/11/02 10:49:31;;;;;;;3.67;1.80;;;14.90;99.90;;;;;;4958349;28;20512;-70
2023/11/02 10:51:58;;;;;;;4.53;1.63;;;14.90;99.90;;;;;;4962568;28;20477;-70
2023/11/02 10:54:56;;;;;;;3.00;1.40;;;15.00;99.90;;;;;;4959782;28;20477;-70
2023/11/02 10:57:22;;;;;;;4.43;1.43;;;15.00;99.90;;;;;;4958350;28;20870;-70
2023/11/02 10:59:48;;;;;;;2.27;1.50;;;14.90;99.90;;;;;;4960806;28;20914;-70
2023/11/02 11:02:24;;;;;;;3.07;1.23;;;14.90;99.90;;;;;;4963534;28;20542;-70
2023/11/02 11:04:50;;;;;;;2.30;1.43;;;14.90;99.90;;;;;;4956259;28;21107;-70
2023/11/02 11:07:16;;;;;;;3.00;1.40;;;14.90;99.90;;;;;;4962106;28;20521;-70
2023/11/02 11:09:50;;;;;;;2.93;1.33;;;14.80;99.90;;;;;;5057991;27;21106;-70
2023/11/02 11:12:19;;;;;;;1.93;1.17;;;14.90;99.90;;;;;;5054700;28;20812;-69
2023/11/02 11:14:46;;;;;;;1.73;1.17;;;15.00;99.90;;;;;;5045611;28;20768;-69
2023/11/02 11:17:12;;;;;;;3.40;1.87;;;14.90;99.90;;;;;;5052063;28;20444;-70
2023/11/02 11:19:39;;;;;;;4.27;1.40;;;14.90;99.90;;;;;;5048275;28;20531;-70
2023/11/02 11:22:15;;;;;;;4.50;1.40;;;15.10;99.90;;;;;;5048381;28;20442;-70
2023/11/02 11:24:44;;;;;;;4.43;1.50;;;15.20;99.90;;;;;;5049261;28;20941;-70
2023/11/02 11:27:10;;;;;;;2.37;1.27;;;15.20;99.90;;;;;;5055536;28;20802;-70
2023/11/02 11:29:41;;;;;;;2.93;1.30;;;15.20;99.90;;;;;;5049371;28;21055;-70
2023/11/02 11:32:08;;;;;;;2.73;1.70;;;15.20;99.90;;;;;;5050687;28;20429;-70
2023/11/02 11:35:02;;;;;;;3.83;1.50;;;15.30;99.90;;;;;;5046988;28;20547;-69
2023/11/02 11:40:20;;;;;;;4.87;1.57;;;15.30;99.90;;;;;;5051709;28;20926;-70
2023/11/02 11:42:52;;;;;;;4.23;1.40;;;15.30;99.90;;;;;;5055038;28;20441;-70
2023/11/02 11:45:46;;;;;;;2.30;1.30;;;15.40;99.90;;;;;;5052602;28;20208;-70
2023/11/02 11:48:32;;;;;;;2.83;1.53;;;15.40;99.90;;;;;;5051924;28;20457;-69
2023/11/02 11:50:58;;;;;;;4.40;2.00;;;15.40;99.90;;;;;;5056817;28;20425;-68
2023/11/02 11:53:25;;;;;;;5.30;2.70;;;15.50;99.90;;;;;;5048824;28;20544;-69
2023/11/02 11:55:52;;;;;;;4.30;2.67;;;15.50;99.90;;;;;;5052655;28;20928;-69
2023/11/02 11:58:39;;;;;;;3.13;1.80;;;15.50;99.90;;;;;;5057628;28;20437;-69
2023/11/02 12:01:05;;;;;;;5.93;1.50;;;15.60;99.90;;;;;;5051211;28;20552;-68
2023/11/02 12:03:39;;;;;;;4.07;1.67;;;15.60;99.90;;;;;;5048340;28;20633;-68
2023/11/02 12:06:07;;;;;;;2.70;1.43;;;15.70;99.90;;;;;;5047037;28;20206;-69
2023/11/02 12:08:51;;;;;;;2.53;1.53;;;15.80;99.90;;;;;;5050540;28;20475;-70
2023/11/02 12:11:24;;;;;;;4.40;1.40;;;15.80;99.90;;;;;;5052467;28;20424;-69
2023/11/02 12:13:52;;;;;;;5.50;1.70;;;15.80;99.90;;;;;;5054413;28;20557;-70
2023/11/02 12:16:21;;;;;;;3.30;1.47;;;15.70;99.90;;;;;;5051376;28;20414;-70
2023/11/02 12:18:51;;;;;;;2.57;1.60;;;15.70;99.90;;;;;;5054748;28;20433;-69
2023/11/02 12:21:19;;;;;;;3.10;1.60;;;15.70;99.90;;;;;;5036151;28;20443;-69
2023/11/02 12:23:47;;;;;;;4.10;1.63;;;15.60;99.90;;;;;;5037868;28;20536;-70
2023/11/02 12:26:13;;;;;;;2.27;1.43;;;15.70;99.90;;;;;;5039174;28;20426;-68
2023/11/02 12:28:50;;;;;;;3.40;1.70;;;15.60;99.90;;;;;;5038095;28;20457;-69
2023/11/02 12:31:30;;;;;;;1.70;1.17;;;15.50;99.90;;;;;;5037908;28;20818;-70
2023/11/02 12:34:08;;;;;;;5.30;1.50;;;15.40;99.90;;;;;;5037318;28;20449;-69
2023/11/02 12:36:34;;;;;;;6.53;1.60;;;15.30;99.90;;;;;;5038607;28;20927;-70
2023/11/02 12:39:00;;;;;;;3.07;1.43;;;15.30;99.90;;;;;;5041383;28;20430;-68
2023/11/02 12:41:28;;;;;;;3.00;1.53;;;15.30;99.90;;;;;;5039979;28;20430;-73
2023/11/02 12:43:57;;;;;;;5.90;1.47;;;15.30;99.90;;;;;;5036389;28;20210;-70
2023/11/02 12:46:23;;;;;;;3.47;1.53;;;15.20;99.90;;;;;;5041351;28;20443;-70
2023/11/02 12:48:49;;;;;;;2.80;1.30;;;15.20;99.90;;;;;;5046781;28;20496;-71
2023/11/02 12:51:19;;;;;;;4.77;1.80;;;15.20;99.90;;;;;;5034619;28;20184;-69
2023/11/02 12:53:50;;;;;;;2.97;1.50;;;15.20;99.90;;;;;;5041123;28;20454;-70
2023/11/02 12:56:29;;;;;;;2.10;1.47;;;15.10;99.90;;;;;;5040538;28;20894;-69
2023/11/02 12:58:59;;;;;;;2.20;1.30;;;15.00;99.90;;;;;;5040911;28;20446;-70
2023/11/02 13:01:54;;;;;;;4.30;1.80;;;15.00;99.90;;;;;;5041352;28;20430;-70
2023/11/02 13:04:23;;;;;;;2.70;1.60;;;15.00;99.90;;;;;;5040004;28;20445;-71
2023/11/02 13:06:51;;;;;;;3.77;1.30;;;15.10;99.90;;;;;;5039997;28;20434;-70
2023/11/02 13:09:17;;;;;;;2.97;1.57;;;15.00;99.90;;;;;;5034405;28;20477;-70